Terminal Aerodrome Forecast
Issued by NWS

Home | Current Version | Previous Version | Text Only | Print | Product List | Glossary On
Versions: 1 2 3 4 5 6 7 8 9 10 11 12
000
FTUS42 KMLB 291130
TAFSFB
TAF
KSFB 291130Z 2912/3012 07004KT P6SM FEW045
     FM291500 07008KT P6SM SCT035
     FM291800 08012KT P6SM SCT040
     FM300100 07006KT P6SM FEW035
     FM300600 05003KT P6SM SCT030=

USA.gov is the U.S. government's official web portal to all federal, state and local government web resources and services.